Blackfoot, Texas
Current Conditions -  °F | °C
As of 2:20 PM on Saturday 25 Oct 2014 (Local Time) from KPSN Reporting Station
Clear Clear  
Wind Chill: 83°   Ceiling: Unl
Heat Index: 84°   Visibility: 10mi
Dew Point: 62°   Wind: 5mph
Humidity: 50%   Direction: 240°WSW
Pressure: 30.13"   Gusts: NA
Location:  31.935°N, 95.7672°W
Report Text: KPSN 251920Z AUTO 24004KT 10SM CLR 28/16 A3013 RMK AO2 T02830169
Loading
Personal Weather Stations






























Interactive Weather Map
Tropical Storm Tracking
New forecast layout! Learn more

10-Day Weather Forecast

Advertisements
Track Severe Weather on mobile